Time;durP1;ratioP1;P1;durP2;ratioP2;P2;SDS_P1;SDS_P2;PMS_P1;PMS_P2;Temp;Humidity;BMP_temperature;BMP_pressure;BME280_temperature;BME280_humidity;BME280_pressure;Samples;Min_cycle;Max_cycle;Signal;HPM_P1;HPM_P2
2022/08/31 00:05:46;;;;;;;0.40;0.40;;;18.30;65.20;;;18.62;50.18;95190.16;4995405;28;20665;-77
2022/08/31 00:08:14;;;;;;;0.50;0.50;;;18.30;65.30;;;18.63;50.81;95183.78;5009856;28;20250;-77
2022/08/31 00:10:44;;;;;;;0.50;0.50;;;18.20;65.50;;;18.64;50.49;95187.25;5001900;28;20688;-77
2022/08/31 00:13:13;;;;;;;0.50;0.50;;;18.20;65.50;;;18.58;50.85;95175.72;5016486;28;20197;-77
2022/08/31 00:15:43;;;;;;;0.50;0.50;;;18.20;65.60;;;18.62;50.77;95181.38;5015257;28;20249;-77
2022/08/31 00:18:10;;;;;;;0.50;0.50;;;18.20;65.80;;;18.61;50.90;95177.09;5018272;28;20199;-77
2022/08/31 00:20:39;;;;;;;0.50;0.50;;;18.20;65.80;;;18.63;50.86;95177.69;4976085;28;20343;-77
2022/08/31 00:23:10;;;;;;;0.43;0.43;;;18.20;66.00;;;18.62;51.21;95174.22;5009694;28;20243;-77
2022/08/31 00:25:40;;;;;;;0.43;0.43;;;18.20;66.10;;;18.61;50.96;95167.28;4992561;28;20197;-77
2022/08/31 00:28:09;;;;;;;0.50;0.50;;;18.20;66.40;;;18.61;51.22;95175.25;4991384;28;20287;-77
2022/08/31 00:30:36;;;;;;;0.50;0.50;;;18.20;66.10;;;18.61;50.75;95175.25;5007395;28;20201;-77
2022/08/31 00:33:05;;;;;;;0.50;0.50;;;18.10;65.90;;;18.60;50.96;95178.16;5007775;28;20220;-77
2022/08/31 00:35:35;;;;;;;0.50;0.50;;;18.10;66.00;;;18.56;51.41;95178.59;4992082;28;20201;-77
2022/08/31 00:38:04;;;;;;;0.60;0.60;;;18.10;66.20;;;18.55;51.21;95179.66;4977167;28;20252;-77
2022/08/31 00:40:32;;;;;;;0.50;0.50;;;18.10;66.20;;;18.53;50.99;95186.25;5003213;28;20258;-78
2022/08/31 00:43:29;;;;;;;0.50;0.50;;;18.10;66.20;;;18.51;51.64;95183.03;5010183;28;20297;-77
2022/08/31 00:45:56;;;;;;;0.50;0.50;;;18.10;66.30;;;18.49;51.35;95180.63;5010328;28;20294;-77
2022/08/31 00:48:23;;;;;;;0.50;0.50;;;18.10;66.20;;;18.48;51.72;95176.34;4997126;28;20205;-77
2022/08/31 00:50:51;;;;;;;0.50;0.50;;;18.00;66.10;;;18.48;51.78;95175.50;5009772;28;20700;-77
2022/08/31 00:53:18;;;;;;;0.50;0.50;;;18.10;66.40;;;18.50;51.92;95176.09;5009914;28;20201;-77
2022/08/31 00:55:46;;;;;;;0.60;0.60;;;18.10;66.40;;;18.49;52.08;95166.50;5010278;28;20188;-77
2022/08/31 00:58:14;;;;;;;0.40;0.40;;;18.10;66.50;;;18.51;51.59;95175.84;4977094;28;20200;-76
2022/08/31 01:00:42;;;;;;;0.40;0.40;;;18.10;66.50;;;18.52;51.87;95166.84;5004167;28;20311;-77
2022/08/31 01:03:10;;;;;;;0.50;0.50;;;18.10;66.60;;;18.52;52.05;95169.50;5011602;28;20211;-77
2022/08/31 01:05:38;;;;;;;0.50;0.50;;;18.10;66.70;;;18.52;52.30;95172.16;5034390;28;20269;-77
2022/08/31 01:08:07;;;;;;;0.50;0.50;;;18.10;66.70;;;18.53;51.68;95171.13;5024692;28;20203;-77
2022/08/31 01:10:39;;;;;;;0.50;0.50;;;18.10;66.60;;;18.54;52.10;95178.06;5011890;28;20212;-77
2022/08/31 01:13:07;;;;;;;0.50;0.50;;;18.10;67.00;;;18.56;52.24;95173.28;5034188;28;20195;-77
2022/08/31 01:15:36;;;;;;;0.50;0.50;;;18.20;66.80;;;18.59;52.36;95182.66;5034267;28;20246;-77
2022/08/31 01:18:06;;;;;;;0.50;0.50;;;18.20;66.90;;;18.60;52.10;95178.16;5015213;28;20233;-77
2022/08/31 01:21:02;;;;;;;0.50;0.50;;;18.20;67.00;;;18.62;52.42;95186.69;5017857;28;20224;-77
2022/08/31 01:23:44;;;;;;;0.50;0.50;;;18.20;67.20;;;18.65;52.63;95178.25;5001469;28;20270;-77
2022/08/31 01:26:19;;;;;;;0.43;0.43;;;18.20;67.50;;;18.67;52.47;95182.28;5015548;28;20634;-77
2022/08/31 01:28:48;;;;;;;0.50;0.50;;;18.30;67.30;;;18.66;52.01;95179.84;5013731;28;20247;-76
2022/08/31 01:31:35;;;;;;;0.43;0.43;;;18.30;67.00;;;18.72;52.19;95185.03;5030077;28;20674;-77
2022/08/31 01:34:03;;;;;;;0.45;0.45;;;18.30;67.20;;;18.76;52.65;95185.38;5014139;28;20192;-77
2022/08/31 01:36:33;;;;;;;0.50;0.50;;;18.30;66.90;;;18.77;52.75;95178.22;5013326;28;20670;-77
2022/08/31 01:39:01;;;;;;;0.50;0.50;;;18.40;67.30;;;18.77;52.57;95175.56;5002666;28;20701;-77
2022/08/31 01:41:28;;;;;;;0.50;0.50;;;18.40;67.10;;;18.79;52.30;95187.56;4997402;28;20224;-78
2022/08/31 01:43:56;;;;;;;0.57;0.57;;;18.30;67.00;;;18.80;51.91;95175.88;5013829;28;20205;-77
2022/08/31 01:46:23;;;;;;;0.50;0.50;;;18.30;66.90;;;18.79;52.21;95179.59;5020914;28;20678;-77
2022/08/31 01:48:51;;;;;;;0.50;0.50;;;18.40;67.10;;;18.79;52.11;95170.81;5002596;28;20201;-77
2022/08/31 01:51:20;;;;;;;0.60;0.60;;;18.40;67.00;;;18.77;52.00;95175.56;5013497;28;20561;-77
2022/08/31 01:53:51;;;;;;;0.50;0.50;;;18.40;67.10;;;18.74;51.98;95182.16;4997247;28;20215;-77
2022/08/31 01:56:28;;;;;;;0.50;0.50;;;18.30;67.10;;;18.69;52.43;95174.88;5025601;28;20602;-77
2022/08/31 01:58:58;;;;;;;0.50;0.50;;;18.30;67.30;;;18.66;52.00;95177.19;5006125;28;20235;-77
2022/08/31 02:01:41;;;;;;;0.50;0.50;;;18.30;67.00;;;18.59;52.63;95174.69;5011503;28;20286;-77
2022/08/31 02:04:11;;;;;;;0.50;0.50;;;18.30;67.40;;;18.55;52.09;95181.50;5012102;28;20299;-77
2022/08/31 02:06:43;;;;;;;0.50;0.50;;;18.20;67.10;;;18.51;52.86;95178.50;5000555;28;20222;-77
2022/08/31 02:09:11;;;;;;;0.43;0.43;;;18.10;67.30;;;18.48;52.48;95168.38;5033112;28;20200;-77
2022/08/31 02:11:40;;;;;;;0.50;0.50;;;18.10;67.10;;;18.46;52.67;95169.66;5016424;28;20346;-77
2022/08/31 02:14:08;;;;;;;0.55;0.55;;;18.10;67.30;;;18.45;52.55;95170.69;5014817;28;20215;-77
2022/08/31 02:16:36;;;;;;;0.50;0.50;;;18.10;67.50;;;18.42;52.86;95171.16;4994728;28;20212;-77
2022/08/31 02:19:06;;;;;;;0.50;0.50;;;18.00;67.50;;;18.43;53.12;95176.25;5013353;28;20212;-77
2022/08/31 02:21:33;;;;;;;0.50;0.50;;;18.00;67.70;;;18.44;53.31;95163.75;4996886;28;20248;-77
2022/08/31 02:24:04;;;;;;;0.50;0.50;;;18.00;67.70;;;18.47;53.42;95166.75;5012484;28;20745;-79
2022/08/31 02:26:31;;;;;;;0.40;0.40;;;18.10;67.80;;;18.49;53.35;95162.03;4996748;28;20307;-77
2022/08/31 02:28:59;;;;;;;0.47;0.47;;;18.00;67.80;;;18.52;53.59;95166.84;5013035;28;20287;-79
2022/08/31 02:31:26;;;;;;;0.50;0.50;;;18.10;68.10;;;18.52;53.29;95153.56;4995801;28;20310;-76
2022/08/31 02:33:58;;;;;;;0.50;0.50;;;18.10;68.00;;;18.52;53.08;95161.53;5009344;28;20207;-77
2022/08/31 02:36:25;;;;;;;0.60;0.60;;;18.10;68.00;;;18.50;53.12;95160.94;5019413;28;20244;-77
2022/08/31 02:38:53;;;;;;;0.50;0.50;;;18.10;68.00;;;18.51;53.58;95154.59;5012964;28;20919;-77
2022/08/31 02:41:22;;;;;;;0.50;0.50;;;18.10;68.00;;;18.52;53.42;95160.75;4995030;28;20235;-77
2022/08/31 02:43:49;;;;;;;0.60;0.60;;;18.20;68.20;;;18.52;53.50;95163.41;5012003;28;20295;-77
2022/08/31 02:46:16;;;;;;;0.60;0.60;;;18.10;68.00;;;18.51;53.52;95157.25;5012641;28;20220;-77
2022/08/31 02:48:53;;;;;;;0.50;0.50;;;18.10;68.10;;;18.51;53.29;95159.91;4998643;28;20223;-77
2022/08/31 02:51:20;;;;;;;0.57;0.57;;;18.10;68.10;;;18.50;53.85;95158.28;5017209;28;20223;-76
2022/08/31 02:53:49;;;;;;;0.55;0.55;;;18.10;68.10;;;18.52;53.60;95161.53;5015887;28;20199;-78
2022/08/31 02:56:16;;;;;;;0.50;0.50;;;18.20;68.40;;;18.54;53.77;95161.28;5015755;28;20223;-77
2022/08/31 02:58:44;;;;;;;0.50;0.50;;;18.20;68.40;;;18.58;53.53;95156.31;5015619;28;20188;-77
2022/08/31 03:01:11;;;;;;;0.50;0.50;;;18.20;68.50;;;18.60;53.76;95157.69;5003886;28;20229;-77
2022/08/31 03:03:39;;;;;;;0.55;0.55;;;18.20;68.50;;;18.64;53.94;95150.06;4999434;28;20228;-77
2022/08/31 03:06:12;;;;;;;0.50;0.50;;;18.30;68.60;;;18.66;54.19;95151.47;4996643;28;20263;-77
2022/08/31 03:08:40;;;;;;;0.50;0.50;;;18.30;68.60;;;18.68;53.74;95149.34;4995608;28;20232;-78
2022/08/31 03:11:08;;;;;;;0.50;0.50;;;18.30;69.50;;;18.72;54.01;95144.38;4994374;28;20324;-78
2022/08/31 03:13:38;;;;;;;0.50;0.50;;;18.30;68.40;;;18.73;54.11;95144.13;4995370;28;20209;-78
2022/08/31 03:16:06;;;;;;;0.50;0.50;;;18.40;68.60;;;18.75;53.85;95148.41;5011930;28;20243;-79
2022/08/31 03:18:33;;;;;;;0.40;0.40;;;18.40;68.60;;;18.75;53.97;95146.56;5011958;28;20243;-78
2022/08/31 03:21:01;;;;;;;0.47;0.47;;;18.40;68.50;;;18.76;53.93;95156.16;5005563;28;20231;-78
2022/08/31 03:23:29;;;;;;;0.40;0.40;;;18.40;68.50;;;18.79;53.94;95157.53;5002426;28;20291;-78
2022/08/31 03:25:58;;;;;;;0.50;0.50;;;18.40;68.70;;;18.80;54.13;95156.50;5010915;28;20223;-78
2022/08/31 03:28:25;;;;;;;0.40;0.40;;;18.40;68.50;;;18.80;53.77;95148.50;4979625;28;20205;-78
2022/08/31 03:31:14;;;;;;;0.50;0.50;;;18.50;68.70;;;18.83;54.33;95151.47;5007948;28;20232;-77
2022/08/31 03:33:42;;;;;;;0.50;0.50;;;18.50;68.50;;;18.84;53.99;95150.44;4995485;28;20256;-78
2022/08/31 03:36:09;;;;;;;0.50;0.50;;;18.50;68.50;;;18.87;53.95;95155.28;5011651;28;20217;-78
2022/08/31 03:38:37;;;;;;;0.40;0.40;;;18.50;68.60;;;18.90;54.52;95154.00;5002263;28;20204;-78
2022/08/31 03:41:04;;;;;;;0.40;0.40;;;18.50;68.60;;;18.92;54.01;95148.47;4995329;28;20239;-76
2022/08/31 03:43:35;;;;;;;0.50;0.50;;;18.60;68.60;;;18.93;54.58;95153.56;4996222;28;20291;-78
2022/08/31 03:46:03;;;;;;;0.40;0.40;;;18.60;68.60;;;18.96;54.36;95150.41;4995288;28;20267;-78
2022/08/31 03:48:39;;;;;;;0.50;0.50;;;18.60;68.70;;;18.99;54.40;95151.78;4993252;28;20661;-78
2022/08/31 03:51:07;;;;;;;0.40;0.40;;;18.60;68.80;;;18.98;54.00;95153.66;4995311;28;20220;-77
2022/08/31 03:53:35;;;;;;;0.50;0.50;;;18.70;68.70;;;19.02;53.99;95152.13;5029007;28;20232;-78
2022/08/31 03:56:07;;;;;;;0.50;0.50;;;18.70;68.70;;;19.05;54.42;95153.50;5024351;28;20244;-78
2022/08/31 03:58:40;;;;;;;0.43;0.43;;;18.70;68.70;;;19.05;54.30;95156.16;5012860;28;20344;-78
2022/08/31 04:01:11;;;;;;;0.60;0.60;;;18.70;68.60;;;19.06;54.39;95155.13;4995643;28;20236;-78
2022/08/31 04:03:57;;;;;;;0.50;0.50;;;18.70;68.90;;;19.07;54.54;95156.72;5006474;28;20212;-78
2022/08/31 04:06:47;;;;;;;0.50;0.50;;;18.70;68.70;;;19.07;54.32;95156.72;5010136;28;20224;-78
2022/08/31 04:09:33;;;;;;;0.47;0.47;;;18.80;68.60;;;19.08;54.36;95155.69;5011861;28;20287;-78
2022/08/31 04:12:18;;;;;;;0.52;0.52;;;18.90;68.80;;;19.09;53.59;95149.34;5011865;28;20696;-78
2022/08/31 04:15:07;;;;;;;0.50;0.50;;;18.80;68.60;;;19.10;53.94;95144.81;5009726;28;20224;-79
2022/08/31 04:17:57;;;;;;;0.40;0.40;;;18.80;68.70;;;19.11;53.86;95157.06;5027142;28;20219;-78
2022/08/31 04:20:46;;;;;;;0.43;0.43;;;18.80;68.70;;;19.08;54.40;95152.22;5031224;28;20216;-79
2022/08/31 04:23:13;;;;;;;0.50;0.50;;;18.80;68.70;;;19.11;53.86;95159.72;5031149;28;20286;-78
2022/08/31 04:25:46;;;;;;;0.40;0.40;;;18.80;68.70;;;19.12;54.08;95156.81;5024314;28;20649;-79
2022/08/31 04:28:14;;;;;;;0.50;0.50;;;18.80;68.70;;;19.13;54.26;95160.28;5012092;28;20474;-79
2022/08/31 04:30:42;;;;;;;0.60;0.60;;;18.80;68.80;;;19.13;54.39;95158.44;5009757;28;20200;-79
2022/08/31 04:33:13;;;;;;;0.50;0.50;;;18.80;68.80;;;19.14;54.15;95160.03;4995504;28;20177;-79
2022/08/31 04:35:41;;;;;;;0.50;0.50;;;18.80;68.80;;;19.18;54.70;95161.16;5012154;28;20283;-78
2022/08/31 04:38:09;;;;;;;0.50;0.50;;;18.80;68.80;;;19.20;54.91;95159.09;5003936;28;20196;-79
2022/08/31 04:40:41;;;;;;;0.50;0.50;;;18.90;68.90;;;19.23;54.63;95154.34;4983607;28;20193;-78
2022/08/31 04:43:10;;;;;;;0.50;0.50;;;18.90;69.00;;;19.25;54.55;95161.03;5015027;28;20200;-79
2022/08/31 04:45:41;;;;;;;0.70;0.70;;;18.90;68.90;;;19.27;54.66;95166.09;5017507;28;20206;-79
2022/08/31 04:48:12;;;;;;;0.50;0.50;;;18.90;69.10;;;19.29;54.70;95156.03;5012964;28;20630;-79
2022/08/31 04:50:40;;;;;;;0.50;0.50;;;19.00;68.90;;;19.31;54.63;95159.25;4981359;28;20199;-79
2022/08/31 04:53:10;;;;;;;0.50;0.50;;;19.00;68.90;;;19.28;54.41;95160.53;5028904;28;20594;-79
2022/08/31 04:55:42;;;;;;;0.50;0.50;;;19.00;68.90;;;19.35;54.52;95169.16;4999032;28;20195;-79
2022/08/31 04:58:12;;;;;;;0.50;0.50;;;19.00;69.30;;;19.38;54.69;95161.75;4998932;28;20275;-79
2022/08/31 05:00:42;;;;;;;0.50;0.50;;;19.10;69.10;;;19.38;54.70;95156.44;5013968;28;20201;-79
2022/08/31 05:03:35;;;;;;;0.50;0.50;;;19.10;69.10;;;19.41;54.80;95164.75;5001889;28;20291;-79
2022/08/31 05:06:03;;;;;;;0.50;0.50;;;19.10;69.00;;;19.45;54.26;95170.41;5014556;28;20232;-79
2022/08/31 05:08:31;;;;;;;0.50;0.50;;;19.10;69.00;;;19.46;54.84;95156.03;4997776;28;20693;-79
2022/08/31 05:10:58;;;;;;;0.50;0.50;;;19.20;69.20;;;19.47;54.74;95161.13;5023158;28;20231;-79
2022/08/31 05:13:25;;;;;;;0.50;0.50;;;19.20;69.00;;;19.48;54.74;95156.59;5017838;28;20204;-80
2022/08/31 05:15:54;;;;;;;0.50;0.50;;;19.20;69.10;;;19.49;54.40;95161.69;5039195;28;20200;-79
2022/08/31 05:18:21;;;;;;;0.45;0.45;;;19.20;69.00;;;19.48;54.48;95160.06;5024325;28;20741;-79
2022/08/31 05:20:55;;;;;;;0.50;0.50;;;19.20;69.00;;;19.45;54.60;95162.41;5018400;28;20544;-79
2022/08/31 05:23:22;;;;;;;0.50;0.50;;;19.30;69.10;;;19.48;54.74;95173.38;5013885;28;20228;-80
2022/08/31 05:25:50;;;;;;;0.50;0.50;;;19.20;69.10;;;19.49;54.44;95169.69;4997487;28;20279;-78
2022/08/31 05:28:22;;;;;;;0.43;0.43;;;19.30;69.10;;;19.52;54.95;95166.50;5000810;28;20207;-80
2022/08/31 05:30:50;;;;;;;0.50;0.50;;;19.30;69.10;;;19.52;54.78;95169.19;5013478;28;20201;-79
2022/08/31 05:33:29;;;;;;;0.50;0.50;;;19.30;69.10;;;19.54;55.10;95168.94;4999700;28;20208;-80
2022/08/31 05:36:01;;;;;;;0.50;0.50;;;19.30;69.00;;;19.55;54.69;95181.19;4981654;28;20200;-79
2022/08/31 05:38:28;;;;;;;0.50;0.50;;;19.30;69.20;;;19.57;55.03;95176.44;5006115;28;20666;-80
2022/08/31 05:41:00;;;;;;;0.50;0.50;;;19.30;69.10;;;19.61;54.74;95179.41;5016983;28;20200;-79
2022/08/31 05:43:27;;;;;;;0.50;0.50;;;19.40;69.60;;;19.64;54.63;95185.06;5034314;28;20740;-79
2022/08/31 05:45:56;;;;;;;0.50;0.50;;;19.40;69.00;;;19.65;54.84;95184.03;5031260;28;20200;-79
2022/08/31 05:48:24;;;;;;;0.50;0.50;;;19.40;69.10;;;19.70;55.00;95183.31;5008037;28;20231;-78
2022/08/31 05:51:11;;;;;;;0.50;0.50;;;19.40;69.10;;;19.73;55.09;95182.81;4982985;28;20204;-79
2022/08/31 05:53:40;;;;;;;0.50;0.50;;;19.50;69.30;;;19.78;54.73;95196.19;4981624;28;20295;-79
2022/08/31 05:56:11;;;;;;;0.43;0.43;;;19.50;69.10;;;19.79;55.00;95197.00;4991393;28;20274;-80
2022/08/31 05:58:41;;;;;;;0.40;0.40;;;19.50;69.10;;;19.82;54.97;95199.16;5012140;28;20200;-80
2022/08/31 06:01:22;;;;;;;0.43;0.43;;;19.50;69.10;;;19.86;54.82;95204.84;5030953;28;20216;-80
2022/08/31 06:04:21;;;;;;;0.40;0.40;;;19.60;69.20;;;19.84;54.43;95211.22;5034860;28;20293;-80
2022/08/31 06:06:51;;;;;;;0.40;0.40;;;19.60;69.00;;;19.91;54.61;95210.22;5021025;28;20314;-80
2022/08/31 06:09:21;;;;;;;0.40;0.40;;;19.60;69.00;;;19.93;54.72;95208.97;5013205;28;20203;-79
2022/08/31 06:11:48;;;;;;;0.40;0.40;;;19.60;69.00;;;19.96;54.81;95205.81;4986322;28;20307;-79
2022/08/31 06:14:17;;;;;;;0.45;0.45;;;19.70;69.00;;;20.00;54.74;95206.13;5016460;28;20212;-80
2022/08/31 06:16:47;;;;;;;0.40;0.40;;;19.70;69.10;;;20.04;54.31;95209.91;5014208;28;20295;-80
2022/08/31 06:19:18;;;;;;;0.40;0.40;;;19.70;69.00;;;20.06;54.54;95205.13;5014610;28;20307;-80
2022/08/31 06:21:50;;;;;;;0.40;0.40;;;19.70;69.00;;;20.09;54.10;95206.50;5015436;28;20311;-80
2022/08/31 06:24:21;;;;;;;0.40;0.40;;;19.80;69.00;;;20.09;54.23;95217.97;5016795;28;20204;-80
2022/08/31 06:26:54;;;;;;;0.40;0.40;;;19.80;68.90;;;20.09;54.62;95217.16;5012796;28;20311;-80
2022/08/31 06:29:32;;;;;;;0.50;0.50;;;19.80;68.80;;;20.09;54.73;95206.50;5016151;28;20358;-80
2022/08/31 06:32:06;;;;;;;0.40;0.40;;;19.80;69.70;;;20.12;54.20;95208.69;5016642;28;20232;-79
2022/08/31 06:34:36;;;;;;;0.40;0.40;;;19.80;68.80;;;20.13;54.36;95205.00;5031261;28;20661;-78
2022/08/31 06:37:08;;;;;;;0.40;0.40;;;19.90;68.90;;;20.17;54.38;95213.28;5006266;28;20228;-80
2022/08/31 06:40:25;;;;;;;0.60;0.60;;;19.90;69.00;;;20.19;54.21;95211.16;5001913;28;20185;-79
2022/08/31 06:43:11;;;;;;;0.40;0.40;;;20.00;69.00;;;20.20;54.50;95208.28;4998082;28;20236;-80
2022/08/31 06:46:08;;;;;;;0.40;0.40;;;19.90;68.80;;;20.24;54.30;95212.06;5008031;28;20311;-80
2022/08/31 06:48:57;;;;;;;0.40;0.40;;;20.00;68.90;;;20.29;54.40;95208.66;4999082;28;20204;-80
2022/08/31 06:51:26;;;;;;;0.40;0.40;;;20.00;69.00;;;20.33;54.92;95209.78;5002571;28;20708;-80
2022/08/31 06:53:55;;;;;;;0.50;0.50;;;20.10;69.00;;;20.37;54.43;95202.88;5013643;28;20189;-80
2022/08/31 06:57:01;;;;;;;0.40;0.40;;;20.10;68.90;;;20.38;54.29;95204.50;5009678;28;20228;-79
2022/08/31 06:59:52;;;;;;;0.40;0.40;;;20.10;68.80;;;20.45;54.63;95207.00;5001959;28;20208;-80
2022/08/31 07:02:30;;;;;;;0.40;0.40;;;20.20;68.90;;;20.53;54.36;95216.41;5022755;28;20326;-79
2022/08/31 07:04:57;;;;;;;0.40;0.40;;;20.20;68.90;;;20.57;54.69;95209.56;4999258;28;20192;-80
2022/08/31 07:07:25;;;;;;;0.40;0.40;;;20.30;69.00;;;20.64;54.44;95208.31;5005296;28;20216;-80
2022/08/31 07:09:52;;;;;;;0.50;0.50;;;20.30;68.90;;;20.71;54.43;95205.44;4996110;28;20659;-80
2022/08/31 07:12:19;;;;;;;0.40;0.40;;;20.40;68.90;;;20.74;54.72;95207.66;5014973;28;20216;-80
2022/08/31 07:14:48;;;;;;;0.40;0.40;;;20.50;68.80;;;20.77;54.14;95201.81;5005552;28;20665;-80
2022/08/31 07:17:21;;;;;;;0.40;0.40;;;20.50;68.80;;;20.82;54.05;95208.28;5026859;28;20627;-80
2022/08/31 07:19:49;;;;;;;0.40;0.40;;;20.60;68.80;;;20.91;54.16;95210.25;5014114;28;20192;-80
2022/08/31 07:22:17;;;;;;;0.40;0.40;;;20.60;68.70;;;20.98;54.36;95209.25;5031073;28;20274;-78
2022/08/31 07:24:49;;;;;;;0.40;0.40;;;20.70;68.80;;;21.07;54.20;95208.56;5009958;28;20555;-78
2022/08/31 07:27:17;;;;;;;0.40;0.40;;;20.80;68.90;;;21.17;54.47;95215.06;5010561;28;20228;-80
2022/08/31 07:29:59;;;;;;;0.30;0.30;;;20.90;68.70;;;21.26;53.70;95210.88;4982578;28;20581;-80
2022/08/31 07:32:30;;;;;;;0.40;0.40;;;20.90;68.50;;;21.34;53.86;95215.75;5007329;28;20227;-80
2022/08/31 07:34:59;;;;;;;0.40;0.40;;;21.10;68.60;;;21.44;53.91;95207.84;5013795;28;20258;-80
2022/08/31 07:43:09;;;;;;;0.43;0.43;;;21.40;68.60;;;21.74;53.74;95216.41;5018634;28;20688;-80
2022/08/31 07:45:39;;;;;;;0.30;0.30;;;21.50;68.20;;;21.84;53.13;95223.69;5020261;28;20296;-79
2022/08/31 07:48:07;;;;;;;0.32;0.32;;;21.60;67.90;;;21.91;53.16;95229.63;5037730;28;20277;-79
2022/08/31 07:50:53;;;;;;;0.40;0.40;;;21.70;67.80;;;21.97;52.74;95223.25;5012364;28;20211;-80
2022/08/31 07:53:45;;;;;;;0.40;0.40;;;21.80;67.50;;;22.04;53.02;95217.69;5035738;28;20207;-79
2022/08/31 07:56:45;;;;;;;0.60;0.60;;;21.90;67.70;;;22.17;52.97;95225.25;4996537;28;20604;-80
2022/08/31 07:59:14;;;;;;;0.40;0.40;;;22.00;67.80;;;22.30;52.78;95224.00;4990535;28;20247;-80
2022/08/31 08:01:44;;;;;;;0.40;0.40;;;22.10;67.80;;;22.42;52.53;95225.69;5011073;28;20219;-79
2022/08/31 08:04:23;;;;;;;0.40;0.40;;;22.20;67.30;;;22.53;52.59;95230.03;5030294;28;20259;-80
2022/08/31 08:07:11;;;;;;;0.40;0.40;;;22.30;67.30;;;22.63;52.07;95223.91;5031291;28;20220;-80
2022/08/31 08:10:12;;;;;;;0.45;0.45;;;22.50;67.70;;;22.72;52.08;95225.03;5039613;28;20285;-80
2022/08/31 08:13:05;;;;;;;0.40;0.40;;;22.60;66.70;;;22.84;51.96;95224.84;5035219;28;20550;-80
2022/08/31 08:15:49;;;;;;;0.30;0.30;;;22.70;66.60;;;22.93;52.12;95225.91;5034126;28;20551;-80
2022/08/31 08:18:18;;;;;;;0.40;0.40;;;22.80;66.40;;;23.02;51.22;95221.69;5033952;28;20204;-80
2022/08/31 08:20:51;;;;;;;0.40;0.40;;;22.90;65.80;;;23.10;51.25;95216.88;5033303;28;20223;-79
2022/08/31 08:23:18;;;;;;;0.35;0.35;;;23.00;65.90;;;23.19;51.60;95223.34;5016951;28;20224;-80
2022/08/31 08:26:21;;;;;;;0.40;0.40;;;23.10;65.90;;;23.30;51.37;95221.50;5038676;28;20224;-80
2022/08/31 08:29:09;;;;;;;0.60;0.60;;;23.20;66.00;;;23.37;51.21;95224.72;5020492;28;20318;-79
2022/08/31 08:31:41;;;;;;;0.40;0.40;;;23.30;66.10;;;23.42;50.49;95227.41;5019294;28;20283;-80
2022/08/31 08:34:10;;;;;;;0.38;0.38;;;23.40;66.00;;;23.47;50.63;95231.97;5018617;28;20196;-80
2022/08/31 08:36:39;;;;;;;0.30;0.30;;;23.40;66.70;;;23.48;50.65;95222.88;5016967;28;20248;-79
2022/08/31 08:39:09;;;;;;;0.40;0.40;;;23.50;65.80;;;23.54;50.53;95226.38;5011059;28;20204;-79
2022/08/31 08:41:48;;;;;;;0.50;0.50;;;23.50;65.60;;;23.54;50.30;95221.81;5007852;28;20235;-79
2022/08/31 08:44:17;;;;;;;0.40;0.40;;;23.50;65.20;;;23.56;50.28;95230.38;5030684;28;20250;-80
2022/08/31 08:46:56;;;;;;;0.40;0.40;;;23.50;65.20;;;23.55;49.86;95228.78;5000164;28;20231;-80
2022/08/31 08:49:44;;;;;;;0.50;0.50;;;23.50;65.00;;;23.50;49.90;95228.78;5030779;28;20203;-79
2022/08/31 08:52:28;;;;;;;0.40;0.40;;;23.50;64.90;;;23.47;49.51;95235.47;5034854;28;20676;-80
2022/08/31 08:55:02;;;;;;;0.50;0.50;;;23.50;64.80;;;23.39;49.36;95237.84;5016060;28;20295;-79
2022/08/31 08:57:37;;;;;;;0.40;0.40;;;23.50;64.50;;;23.31;49.67;95226.59;5034587;28;20204;-80
2022/08/31 09:00:27;;;;;;;0.40;0.40;;;23.50;64.80;;;23.22;49.88;95228.19;5014526;28;20617;-79
2022/08/31 09:03:51;;;;;;;0.50;0.50;;;23.30;64.70;;;23.13;49.74;95229.72;5038682;28;20673;-78
2022/08/31 09:07:21;;;;;;;0.30;0.30;;;23.30;64.80;;;23.09;50.13;95232.13;5034093;28;20236;-79
2022/08/31 09:10:12;;;;;;;0.65;0.65;;;23.20;64.80;;;23.08;50.22;95232.38;5031245;28;20203;-79
2022/08/31 09:13:17;;;;;;;0.60;0.60;;;23.20;64.80;;;23.02;50.01;95227.03;5040400;28;20228;-79
2022/08/31 09:16:07;;;;;;;0.38;0.38;;;23.10;64.80;;;22.92;49.61;95235.00;5019809;28;20200;-79
2022/08/31 09:19:04;;;;;;;0.43;0.43;;;23.10;64.70;;;22.89;49.82;95232.88;5035528;28;20209;-79
2022/08/31 09:21:38;;;;;;;0.30;0.30;;;22.90;65.60;;;22.83;49.88;95229.34;5004606;28;20217;-79
2022/08/31 09:24:14;;;;;;;0.30;0.30;;;22.90;65.10;;;22.82;50.15;95229.63;5006928;28;20212;-78
2022/08/31 09:27:16;;;;;;;0.30;0.30;;;22.80;65.10;;;22.79;50.22;95228.28;5002331;28;20225;-79
2022/08/31 09:29:58;;;;;;;0.40;0.40;;;22.80;65.10;;;22.75;50.00;95226.38;5030161;28;20192;-79
2022/08/31 09:32:33;;;;;;;0.50;0.50;;;22.70;64.90;;;22.73;50.03;95226.66;5005029;28;20221;-79
2022/08/31 09:35:08;;;;;;;0.30;0.30;;;22.70;64.90;;;22.72;50.14;95227.72;5021792;28;20265;-80
2022/08/31 09:37:43;;;;;;;0.40;0.40;;;22.70;65.20;;;22.70;50.13;95225.31;5037007;28;20240;-78
2022/08/31 09:40:34;;;;;;;0.40;0.40;;;22.70;65.30;;;22.68;50.22;95226.63;5014509;28;20215;-79
2022/08/31 09:43:25;;;;;;;0.30;0.30;;;22.70;65.50;;;22.63;50.19;95219.41;5040833;28;20300;-79
2022/08/31 09:46:10;;;;;;;0.40;0.40;;;22.70;65.60;;;22.60;50.48;95214.56;4983350;28;20319;-79
2022/08/31 09:48:50;;;;;;;0.50;0.50;;;22.60;65.50;;;22.62;50.44;95224.97;4996972;28;20288;-79
2022/08/31 09:51:35;;;;;;;0.30;0.30;;;22.60;65.50;;;22.64;50.91;95220.19;4996954;28;20267;-79
2022/08/31 09:57:04;;;;;;;0.40;0.40;;;22.60;65.50;;;22.69;50.58;95217.53;5027016;28;20427;-79
2022/08/31 09:59:42;;;;;;;0.40;0.40;;;22.60;65.50;;;22.71;50.47;95223.44;4995264;28;20270;-80
2022/08/31 10:02:21;;;;;;;0.32;0.32;;;22.60;65.50;;;22.70;50.27;95229.84;5016213;28;20226;-80
2022/08/31 10:04:54;;;;;;;0.50;0.50;;;22.60;65.50;;;22.66;50.63;95224.19;5008704;28;20200;-79
2022/08/31 10:07:32;;;;;;;0.50;0.50;;;22.60;65.50;;;22.63;50.66;95218.56;5011141;28;20601;-79
2022/08/31 10:10:16;;;;;;;0.60;0.60;;;22.60;65.60;;;22.68;50.81;95226.63;5019185;28;20188;-80
2022/08/31 10:13:53;;;;;;;0.30;0.30;;;22.60;65.50;;;22.66;50.59;95226.09;5018892;28;20311;-79
2022/08/31 10:17:01;;;;;;;0.40;0.40;;;22.60;65.50;;;22.64;50.56;95222.88;5002321;28;20237;-79
2022/08/31 10:19:48;;;;;;;0.50;0.50;;;22.60;65.50;;;22.65;50.32;95227.94;5011770;28;20196;-79
2022/08/31 10:22:27;;;;;;;0.50;0.50;;;22.60;65.50;;;22.69;50.35;95222.88;5011285;28;20229;-79
2022/08/31 10:25:25;;;;;;;0.40;0.40;;;22.60;66.50;;;22.70;50.58;95224.50;5000953;28;20192;-79
2022/08/31 10:28:17;;;;;;;0.32;0.32;;;22.60;65.50;;;22.72;50.83;95222.38;5015371;28;20224;-79
2022/08/31 10:30:58;;;;;;;0.40;0.40;;;22.60;65.50;;;22.77;50.85;95226.94;5021026;28;20237;-81
2022/08/31 10:36:31;;;;;;;0.60;0.60;;;22.70;65.60;;;22.86;50.59;95220.81;5003613;28;20228;-81
2022/08/31 10:38:59;;;;;;;0.45;0.45;;;22.70;65.60;;;22.89;50.65;95214.16;5000357;28;20204;-80
2022/08/31 10:41:32;;;;;;;0.40;0.40;;;22.70;65.60;;;22.97;50.29;95210.97;5018116;28;20228;-80
2022/08/31 10:44:22;;;;;;;0.30;0.30;;;22.80;65.70;;;23.01;50.68;95213.91;5019269;28;20212;-80
2022/08/31 10:46:53;;;;;;;0.43;0.43;;;22.80;65.70;;;23.03;50.15;95217.94;5028587;28;20227;-80
2022/08/31 10:49:21;;;;;;;0.40;0.40;;;22.80;65.70;;;23.04;50.56;95218.72;5022024;28;20287;-80
2022/08/31 10:52:07;;;;;;;0.45;0.45;;;22.90;65.70;;;23.07;50.29;95228.09;5019911;28;20213;-81
2022/08/31 10:54:47;;;;;;;0.50;0.50;;;22.90;65.70;;;23.12;50.23;95222.75;5037021;28;20651;-80
2022/08/31 10:57:44;;;;;;;0.40;0.40;;;23.00;65.80;;;23.13;50.39;95229.72;5034022;28;20308;-81
2022/08/31 11:03:32;;;;;;;0.60;0.60;;;23.10;65.50;;;23.19;50.43;95234.03;5013357;28;20236;-81
2022/08/31 11:06:18;;;;;;;0.40;0.40;;;23.10;65.50;;;23.23;49.98;95232.47;5000992;28;20197;-80
2022/08/31 11:09:06;;;;;;;0.40;0.40;;;23.10;65.30;;;23.26;50.13;95239.94;5017300;28;20271;-80
2022/08/31 11:11:44;;;;;;;0.40;0.40;;;23.10;65.10;;;23.31;49.85;95244.50;5021627;28;20225;-81
2022/08/31 11:14:33;;;;;;;0.55;0.55;;;23.20;65.10;;;23.32;50.21;95246.13;5027085;28;20215;-79